sensor_id;sensor_type;location;lat;lon;timestamp;pressure;altitude;pressure_sealevel;temperature;humidity
50702;BME280;36670;50.094;8.496;2023-02-28T00:02:15;101501.13;;;2.33;55.26
50702;BME280;36670;50.094;8.496;2023-02-28T00:04:42;101497.00;;;2.12;55.57
50702;BME280;36670;50.094;8.496;2023-02-28T00:07:08;101492.06;;;1.99;55.69
50702;BME280;36670;50.094;8.496;2023-02-28T00:09:33;101496.47;;;2.00;55.84
50702;BME280;36670;50.094;8.496;2023-02-28T00:11:59;101500.91;;;2.01;55.04
50702;BME280;36670;50.094;8.496;2023-02-28T00:14:24;101495.31;;;2.19;55.44
50702;BME280;36670;50.094;8.496;2023-02-28T00:16:49;101495.69;;;2.33;55.71
50702;BME280;36670;50.094;8.496;2023-02-28T00:19:14;101502.28;;;2.14;55.43
50702;BME280;36670;50.094;8.496;2023-02-28T00:21:40;101494.75;;;1.91;56.58
50702;BME280;36670;50.094;8.496;2023-02-28T00:24:06;101498.81;;;1.87;55.66
50702;BME280;36670;50.094;8.496;2023-02-28T00:26:31;101498.47;;;1.82;56.36
50702;BME280;36670;50.094;8.496;2023-02-28T00:28:57;101488.75;;;1.79;56.13
50702;BME280;36670;50.094;8.496;2023-02-28T00:31:22;101494.53;;;1.76;56.88
50702;BME280;36670;50.094;8.496;2023-02-28T00:33:48;101494.13;;;1.63;57.45
50702;BME280;36670;50.094;8.496;2023-02-28T00:36:13;101494.84;;;1.65;56.66
50702;BME280;36670;50.094;8.496;2023-02-28T00:38:39;101491.97;;;1.75;57.66
50702;BME280;36670;50.094;8.496;2023-02-28T00:41:05;101490.75;;;1.61;58.25
50702;BME280;36670;50.094;8.496;2023-02-28T00:43:35;101493.66;;;1.67;57.88
50702;BME280;36670;50.094;8.496;2023-02-28T00:46:02;101489.72;;;1.62;57.35
50702;BME280;36670;50.094;8.496;2023-02-28T00:48:27;101496.97;;;1.45;58.75
50702;BME280;36670;50.094;8.496;2023-02-28T00:50:53;101495.41;;;1.34;58.85
50702;BME280;36670;50.094;8.496;2023-02-28T00:53:18;101493.94;;;1.48;58.57
50702;BME280;36670;50.094;8.496;2023-02-28T00:55:44;101489.50;;;1.47;58.38
50702;BME280;36670;50.094;8.496;2023-02-28T00:58:09;101490.28;;;1.31;58.73
50702;BME280;36670;50.094;8.496;2023-02-28T01:00:34;101490.63;;;1.36;58.94
50702;BME280;36670;50.094;8.496;2023-02-28T01:02:59;101492.84;;;1.32;59.59
50702;BME280;36670;50.094;8.496;2023-02-28T01:05:25;101496.19;;;1.26;58.99
50702;BME280;36670;50.094;8.496;2023-02-28T01:07:50;101495.34;;;1.26;60.22
50702;BME280;36670;50.094;8.496;2023-02-28T01:10:16;101492.13;;;1.30;60.16
50702;BME280;36670;50.094;8.496;2023-02-28T01:12:41;101493.34;;;1.36;60.01
50702;BME280;36670;50.094;8.496;2023-02-28T01:15:06;101493.13;;;1.29;60.12
50702;BME280;36670;50.094;8.496;2023-02-28T01:17:32;101487.19;;;1.26;60.53
50702;BME280;36670;50.094;8.496;2023-02-28T01:19:57;101489.25;;;1.32;60.24
50702;BME280;36670;50.094;8.496;2023-02-28T01:22:22;101488.41;;;1.31;61.26
50702;BME280;36670;50.094;8.496;2023-02-28T01:24:48;101493.56;;;1.43;59.88
50702;BME280;36670;50.094;8.496;2023-02-28T01:27:13;101488.41;;;1.31;61.04
50702;BME280;36670;50.094;8.496;2023-02-28T01:29:38;101486.31;;;1.25;61.29
50702;BME280;36670;50.094;8.496;2023-02-28T01:32:04;101480.03;;;1.25;61.01
50702;BME280;36670;50.094;8.496;2023-02-28T01:34:29;101483.59;;;1.25;61.41
50702;BME280;36670;50.094;8.496;2023-02-28T01:36:54;101472.75;;;1.33;60.92
50702;BME280;36670;50.094;8.496;2023-02-28T01:39:20;101483.63;;;1.33;61.14
50702;BME280;36670;50.094;8.496;2023-02-28T01:41:45;101480.38;;;1.22;61.16
50702;BME280;36670;50.094;8.496;2023-02-28T01:47:14;101478.03;;;1.27;61.38
50702;BME280;36670;50.094;8.496;2023-02-28T01:49:40;101476.00;;;1.37;61.04
50702;BME280;36670;50.094;8.496;2023-02-28T01:52:06;101474.38;;;1.18;62.28
50702;BME280;36670;50.094;8.496;2023-02-28T01:54:34;101473.81;;;1.06;62.46
50702;BME280;36670;50.094;8.496;2023-02-28T01:57:10;101475.38;;;1.09;61.41
50702;BME280;36670;50.094;8.496;2023-02-28T01:59:41;101472.16;;;0.87;63.20
50702;BME280;36670;50.094;8.496;2023-02-28T02:02:12;101461.28;;;0.87;63.16
50702;BME280;36670;50.094;8.496;2023-02-28T02:04:42;101464.38;;;0.92;62.56
50702;BME280;36670;50.094;8.496;2023-02-28T02:07:10;101470.66;;;0.93;62.54
50702;BME280;36670;50.094;8.496;2023-02-28T02:09:37;101461.03;;;0.98;61.80
50702;BME280;36670;50.094;8.496;2023-02-28T02:12:24;101459.16;;;0.99;62.77
50702;BME280;36670;50.094;8.496;2023-02-28T02:15:10;101459.63;;;0.94;62.54
50702;BME280;36670;50.094;8.496;2023-02-28T02:17:42;101463.91;;;0.97;62.50
50702;BME280;36670;50.094;8.496;2023-02-28T02:25:34;101456.97;;;1.02;61.36
50702;BME280;36670;50.094;8.496;2023-02-28T02:28:36;101463.28;;;1.03;62.34
50702;BME280;36670;50.094;8.496;2023-02-28T02:31:24;101454.41;;;1.01;61.91
50702;BME280;36670;50.094;8.496;2023-02-28T02:37:10;101461.13;;;0.89;61.60
50702;BME280;36670;50.094;8.496;2023-02-28T02:39:58;101458.00;;;0.75;61.62
50702;BME280;36670;50.094;8.496;2023-02-28T02:42:36;101460.84;;;0.74;62.02
50702;BME280;36670;50.094;8.496;2023-02-28T02:45:26;101459.91;;;0.83;61.85
50702;BME280;36670;50.094;8.496;2023-02-28T02:47:56;101464.28;;;0.76;61.79
50702;BME280;36670;50.094;8.496;2023-02-28T02:50:30;101467.16;;;0.74;62.46
50702;BME280;36670;50.094;8.496;2023-02-28T02:53:00;101463.00;;;0.62;62.77
50702;BME280;36670;50.094;8.496;2023-02-28T02:55:27;101462.00;;;0.63;63.10
50702;BME280;36670;50.094;8.496;2023-02-28T02:58:02;101468.91;;;0.57;62.97
50702;BME280;36670;50.094;8.496;2023-02-28T03:00:42;101465.59;;;0.72;61.89
50702;BME280;36670;50.094;8.496;2023-02-28T03:03:09;101464.81;;;0.53;62.67
50702;BME280;36670;50.094;8.496;2023-02-28T03:05:42;101468.44;;;0.62;62.68
50702;BME280;36670;50.094;8.496;2023-02-28T03:08:09;101466.41;;;0.46;61.98
50702;BME280;36670;50.094;8.496;2023-02-28T03:10:38;101465.41;;;0.47;63.16
50702;BME280;36670;50.094;8.496;2023-02-28T03:13:16;101467.88;;;0.58;62.17
50702;BME280;36670;50.094;8.496;2023-02-28T03:19:01;101455.94;;;0.51;63.09
50702;BME280;36670;50.094;8.496;2023-02-28T03:21:36;101457.09;;;0.48;63.28
50702;BME280;36670;50.094;8.496;2023-02-28T03:24:10;101460.78;;;0.39;63.62
50702;BME280;36670;50.094;8.496;2023-02-28T03:26:42;101454.31;;;0.40;62.90
50702;BME280;36670;50.094;8.496;2023-02-28T03:29:15;101459.38;;;0.53;62.07
50702;BME280;36670;50.094;8.496;2023-02-28T03:31:48;101466.97;;;0.49;62.44
50702;BME280;36670;50.094;8.496;2023-02-28T03:34:22;101461.75;;;0.56;62.58
50702;BME280;36670;50.094;8.496;2023-02-28T03:36:53;101459.47;;;0.43;62.46
50702;BME280;36670;50.094;8.496;2023-02-28T03:39:24;101454.16;;;0.42;62.62
50702;BME280;36670;50.094;8.496;2023-02-28T03:41:56;101462.28;;;0.60;62.05
50702;BME280;36670;50.094;8.496;2023-02-28T03:44:32;101465.59;;;0.45;61.75
50702;BME280;36670;50.094;8.496;2023-02-28T03:47:08;101456.03;;;0.41;62.53
50702;BME280;36670;50.094;8.496;2023-02-28T03:49:40;101455.34;;;0.39;62.40
50702;BME280;36670;50.094;8.496;2023-02-28T03:52:09;101459.09;;;0.20;62.51
50702;BME280;36670;50.094;8.496;2023-02-28T03:54:40;101460.97;;;0.20;62.69
50702;BME280;36670;50.094;8.496;2023-02-28T04:00:04;101462.34;;;0.24;62.93
50702;BME280;36670;50.094;8.496;2023-02-28T04:02:32;101460.47;;;0.24;63.02
50702;BME280;36670;50.094;8.496;2023-02-28T04:04:59;101457.84;;;0.32;62.86
50702;BME280;36670;50.094;8.496;2023-02-28T04:07:29;101457.22;;;0.21;62.22
50702;BME280;36670;50.094;8.496;2023-02-28T04:09:54;101451.25;;;0.35;62.16
50702;BME280;36670;50.094;8.496;2023-02-28T04:12:20;101470.47;;;0.42;62.33
50702;BME280;36670;50.094;8.496;2023-02-28T04:14:48;101465.91;;;0.42;61.21
50702;BME280;36670;50.094;8.496;2023-02-28T04:17:13;101471.81;;;0.38;60.80
50702;BME280;36670;50.094;8.496;2023-02-28T04:19:38;101471.03;;;0.27;61.29
50702;BME280;36670;50.094;8.496;2023-02-28T04:22:04;101470.34;;;0.25;61.39
50702;BME280;36670;50.094;8.496;2023-02-28T04:24:29;101461.72;;;0.30;61.37
50702;BME280;36670;50.094;8.496;2023-02-28T04:26:56;101460.63;;;0.41;60.36
50702;BME280;36670;50.094;8.496;2023-02-28T04:29:27;101468.72;;;0.32;60.84
50702;BME280;36670;50.094;8.496;2023-02-28T04:31:53;101466.91;;;0.41;60.19
50702;BME280;36670;50.094;8.496;2023-02-28T04:34:19;101468.78;;;0.41;60.53
50702;BME280;36670;50.094;8.496;2023-02-28T04:36:46;101467.28;;;0.46;61.23
50702;BME280;36670;50.094;8.496;2023-02-28T04:39:14;101467.88;;;0.58;60.74
50702;BME280;36670;50.094;8.496;2023-02-28T04:41:40;101469.84;;;0.48;60.33
50702;BME280;36670;50.094;8.496;2023-02-28T04:44:05;101470.56;;;0.32;60.57
50702;BME280;36670;50.094;8.496;2023-02-28T04:46:30;101469.38;;;0.34;59.97
50702;BME280;36670;50.094;8.496;2023-02-28T04:48:56;101463.59;;;0.56;59.56
50702;BME280;36670;50.094;8.496;2023-02-28T04:51:21;101463.19;;;0.42;59.78
50702;BME280;36670;50.094;8.496;2023-02-28T04:53:48;101458.44;;;0.44;60.13
50702;BME280;36670;50.094;8.496;2023-02-28T04:56:16;101460.38;;;0.52;59.81
50702;BME280;36670;50.094;8.496;2023-02-28T04:58:42;101461.22;;;0.53;59.94
50702;BME280;36670;50.094;8.496;2023-02-28T05:01:28;101461.59;;;0.58;59.31
50702;BME280;36670;50.094;8.496;2023-02-28T05:03:55;101470.16;;;0.63;59.14
50702;BME280;36670;50.094;8.496;2023-02-28T05:06:22;101462.19;;;0.70;59.50
50702;BME280;36670;50.094;8.496;2023-02-28T05:08:49;101469.50;;;0.69;58.79
50702;BME280;36670;50.094;8.496;2023-02-28T05:11:33;101470.59;;;0.58;59.26
50702;BME280;36670;50.094;8.496;2023-02-28T05:14:06;101466.19;;;0.57;59.71
50702;BME280;36670;50.094;8.496;2023-02-28T05:16:32;101468.59;;;0.60;59.56
50702;BME280;36670;50.094;8.496;2023-02-28T05:18:57;101479.47;;;0.60;58.45
50702;BME280;36670;50.094;8.496;2023-02-28T05:23:57;101474.97;;;0.51;58.99
50702;BME280;36670;50.094;8.496;2023-02-28T05:26:22;101478.75;;;0.58;59.28
50702;BME280;36670;50.094;8.496;2023-02-28T05:28:48;101480.78;;;0.56;58.69
50702;BME280;36670;50.094;8.496;2023-02-28T05:31:14;101483.41;;;0.66;59.13
50702;BME280;36670;50.094;8.496;2023-02-28T05:33:39;101478.06;;;0.56;59.09
50702;BME280;36670;50.094;8.496;2023-02-28T05:36:05;101485.47;;;0.72;58.70
50702;BME280;36670;50.094;8.496;2023-02-28T05:38:31;101478.19;;;0.73;58.26
50702;BME280;36670;50.094;8.496;2023-02-28T05:40:56;101484.63;;;0.72;58.97
50702;BME280;36670;50.094;8.496;2023-02-28T05:43:22;101482.16;;;0.78;58.76
50702;BME280;36670;50.094;8.496;2023-02-28T05:45:47;101479.53;;;0.95;58.87
50702;BME280;36670;50.094;8.496;2023-02-28T05:48:13;101481.09;;;0.79;58.44
50702;BME280;36670;50.094;8.496;2023-02-28T05:50:38;101477.44;;;0.89;58.38
50702;BME280;36670;50.094;8.496;2023-02-28T05:53:03;101487.59;;;1.05;58.17
50702;BME280;36670;50.094;8.496;2023-02-28T05:55:29;101490.88;;;0.90;58.29
50702;BME280;36670;50.094;8.496;2023-02-28T05:57:54;101484.25;;;0.93;57.59
50702;BME280;36670;50.094;8.496;2023-02-28T06:00:20;101490.19;;;0.88;58.08
50702;BME280;36670;50.094;8.496;2023-02-28T06:02:45;101481.88;;;0.90;57.94
50702;BME280;36670;50.094;8.496;2023-02-28T06:05:14;101486.75;;;0.86;57.99
50702;BME280;36670;50.094;8.496;2023-02-28T06:07:39;101490.63;;;0.75;58.28
50702;BME280;36670;50.094;8.496;2023-02-28T06:10:05;101488.91;;;0.74;58.76
50702;BME280;36670;50.094;8.496;2023-02-28T06:12:31;101493.56;;;0.64;59.37
50702;BME280;36670;50.094;8.496;2023-02-28T06:14:56;101489.63;;;0.58;59.15
50702;BME280;36670;50.094;8.496;2023-02-28T06:17:21;101496.09;;;0.57;58.90
50702;BME280;36670;50.094;8.496;2023-02-28T06:19:46;101496.16;;;0.65;58.30
50702;BME280;36670;50.094;8.496;2023-02-28T06:22:13;101499.63;;;0.76;57.80
50702;BME280;36670;50.094;8.496;2023-02-28T06:24:38;101496.19;;;0.74;58.31
50702;BME280;36670;50.094;8.496;2023-02-28T06:27:03;101497.16;;;0.64;58.53
50702;BME280;36670;50.094;8.496;2023-02-28T06:29:31;101499.88;;;0.64;58.71
50702;BME280;36670;50.094;8.496;2023-02-28T06:31:57;101498.41;;;0.52;58.74
50702;BME280;36670;50.094;8.496;2023-02-28T06:34:22;101502.13;;;0.51;58.75
50702;BME280;36670;50.094;8.496;2023-02-28T06:36:50;101504.75;;;0.61;58.87
50702;BME280;36670;50.094;8.496;2023-02-28T06:39:17;101505.25;;;0.56;57.94
50702;BME280;36670;50.094;8.496;2023-02-28T06:41:42;101514.72;;;0.52;58.65
50702;BME280;36670;50.094;8.496;2023-02-28T06:44:15;101512.75;;;0.62;58.73
50702;BME280;36670;50.094;8.496;2023-02-28T06:46:42;101511.06;;;0.61;57.85
50702;BME280;36670;50.094;8.496;2023-02-28T06:49:09;101514.88;;;0.68;57.94
50702;BME280;36670;50.094;8.496;2023-02-28T06:51:36;101509.78;;;0.74;57.51
50702;BME280;36670;50.094;8.496;2023-02-28T06:54:02;101470.25;;;0.53;57.44
50702;BME280;36670;50.094;8.496;2023-02-28T06:56:27;101520.66;;;0.74;58.06
50702;BME280;36670;50.094;8.496;2023-02-28T06:58:53;101516.41;;;0.71;57.53
50702;BME280;36670;50.094;8.496;2023-02-28T07:01:19;101520.97;;;0.71;57.70
50702;BME280;36670;50.094;8.496;2023-02-28T07:03:45;101520.03;;;0.80;57.83
50702;BME280;36670;50.094;8.496;2023-02-28T07:06:11;101526.38;;;0.89;57.17
50702;BME280;36670;50.094;8.496;2023-02-28T07:08:36;101526.59;;;0.95;57.16
50702;BME280;36670;50.094;8.496;2023-02-28T07:11:02;101526.94;;;0.92;57.69
50702;BME280;36670;50.094;8.496;2023-02-28T07:13:28;101524.94;;;1.02;56.21
50702;BME280;36670;50.094;8.496;2023-02-28T07:15:59;101542.34;;;1.10;57.21
50702;BME280;36670;50.094;8.496;2023-02-28T07:18:24;101537.53;;;1.04;56.51
50702;BME280;36670;50.094;8.496;2023-02-28T07:20:50;101522.28;;;1.37;56.50
50702;BME280;36670;50.094;8.496;2023-02-28T07:23:16;101525.19;;;1.78;55.95
50702;BME280;36670;50.094;8.496;2023-02-28T07:25:42;101525.69;;;1.82;55.74
50702;BME280;36670;50.094;8.496;2023-02-28T07:28:07;101521.75;;;1.76;55.29
50702;BME280;36670;50.094;8.496;2023-02-28T07:30:32;101523.94;;;1.64;54.69
50702;BME280;36670;50.094;8.496;2023-02-28T07:32:58;101532.72;;;1.50;55.83
50702;BME280;36670;50.094;8.496;2023-02-28T07:35:23;101530.44;;;1.37;56.32
50702;BME280;36670;50.094;8.496;2023-02-28T07:37:48;101533.00;;;1.39;56.54
50702;BME280;36670;50.094;8.496;2023-02-28T07:40:14;101529.50;;;1.55;56.39
50702;BME280;36670;50.094;8.496;2023-02-28T07:42:40;101528.69;;;1.62;56.35
50702;BME280;36670;50.094;8.496;2023-02-28T07:45:07;101525.06;;;1.88;55.56
50702;BME280;36670;50.094;8.496;2023-02-28T07:47:33;101527.25;;;1.84;56.28
50702;BME280;36670;50.094;8.496;2023-02-28T07:49:59;101527.81;;;1.96;55.72
50702;BME280;36670;50.094;8.496;2023-02-28T07:52:24;101533.56;;;1.93;55.59
50702;BME280;36670;50.094;8.496;2023-02-28T07:54:50;101535.59;;;1.91;55.64
50702;BME280;36670;50.094;8.496;2023-02-28T07:57:16;101520.94;;;1.84;55.57
50702;BME280;36670;50.094;8.496;2023-02-28T07:59:41;101532.88;;;1.91;55.60
50702;BME280;36670;50.094;8.496;2023-02-28T08:02:12;101532.00;;;1.91;55.26
50702;BME280;36670;50.094;8.496;2023-02-28T08:04:38;101538.53;;;1.98;54.63
50702;BME280;36670;50.094;8.496;2023-02-28T08:07:04;101539.41;;;2.07;53.87
50702;BME280;36670;50.094;8.496;2023-02-28T08:09:30;101538.44;;;2.24;54.14
50702;BME280;36670;50.094;8.496;2023-02-28T08:11:55;101528.72;;;2.30;54.53
50702;BME280;36670;50.094;8.496;2023-02-28T08:14:21;101540.50;;;2.47;53.58
50702;BME280;36670;50.094;8.496;2023-02-28T08:16:46;101544.91;;;2.31;53.37
50702;BME280;36670;50.094;8.496;2023-02-28T08:19:12;101540.13;;;2.25;53.94
50702;BME280;36670;50.094;8.496;2023-02-28T08:21:37;101537.06;;;2.45;52.85
50702;BME280;36670;50.094;8.496;2023-02-28T08:24:02;101540.69;;;2.53;52.18
50702;BME280;36670;50.094;8.496;2023-02-28T08:26:27;101542.53;;;2.53;51.79
50702;BME280;36670;50.094;8.496;2023-02-28T08:28:53;101547.00;;;2.79;51.51
50702;BME280;36670;50.094;8.496;2023-02-28T08:31:18;101542.38;;;2.79;50.75
50702;BME280;36670;50.094;8.496;2023-02-28T08:33:44;101551.75;;;2.77;51.70
50702;BME280;36670;50.094;8.496;2023-02-28T08:36:10;101546.66;;;2.73;51.83
50702;BME280;36670;50.094;8.496;2023-02-28T08:38:37;101542.72;;;2.93;50.62
50702;BME280;36670;50.094;8.496;2023-02-28T08:41:05;101549.53;;;3.05;50.99
50702;BME280;36670;50.094;8.496;2023-02-28T08:43:33;101548.00;;;3.11;50.64
50702;BME280;36670;50.094;8.496;2023-02-28T08:45:59;101555.81;;;3.22;50.25
50702;BME280;36670;50.094;8.496;2023-02-28T08:48:26;101560.91;;;3.41;49.34
50702;BME280;36670;50.094;8.496;2023-02-28T08:51:00;101552.72;;;3.33;49.87
50702;BME280;36670;50.094;8.496;2023-02-28T08:53:26;101551.16;;;3.47;48.70
50702;BME280;36670;50.094;8.496;2023-02-28T08:55:59;101537.97;;;3.59;48.18
50702;BME280;36670;50.094;8.496;2023-02-28T08:58:26;101548.50;;;3.79;47.54
50702;BME280;36670;50.094;8.496;2023-02-28T09:00:52;101535.38;;;3.66;47.29
50702;BME280;36670;50.094;8.496;2023-02-28T09:03:17;101533.56;;;3.89;47.01
50702;BME280;36670;50.094;8.496;2023-02-28T09:05:56;101531.63;;;4.06;45.40
50702;BME280;36670;50.094;8.496;2023-02-28T09:08:23;101522.66;;;4.21;44.87
50702;BME280;36670;50.094;8.496;2023-02-28T09:10:49;101527.47;;;4.10;45.72
50702;BME280;36670;50.094;8.496;2023-02-28T09:13:14;101519.78;;;4.14;44.57
50702;BME280;36670;50.094;8.496;2023-02-28T09:15:40;101549.19;;;4.12;43.59
50702;BME280;36670;50.094;8.496;2023-02-28T09:18:05;101526.03;;;4.00;43.93
50702;BME280;36670;50.094;8.496;2023-02-28T09:20:30;101523.84;;;4.18;44.62
50702;BME280;36670;50.094;8.496;2023-02-28T09:22:56;101528.78;;;4.46;44.47
50702;BME280;36670;50.094;8.496;2023-02-28T09:25:21;101522.03;;;4.34;43.26
50702;BME280;36670;50.094;8.496;2023-02-28T09:27:46;101533.22;;;4.24;44.44
50702;BME280;36670;50.094;8.496;2023-02-28T09:30:12;101543.13;;;4.25;43.58
50702;BME280;36670;50.094;8.496;2023-02-28T09:32:38;101529.03;;;4.05;44.21
50702;BME280;36670;50.094;8.496;2023-02-28T09:35:03;101516.50;;;4.19;43.30
50702;BME280;36670;50.094;8.496;2023-02-28T09:37:29;101529.94;;;4.28;43.71
50702;BME280;36670;50.094;8.496;2023-02-28T09:39:55;101529.59;;;4.32;42.39
50702;BME280;36670;50.094;8.496;2023-02-28T09:42:25;101536.91;;;4.31;42.75
50702;BME280;36670;50.094;8.496;2023-02-28T09:44:55;101529.03;;;4.36;42.46
50702;BME280;36670;50.094;8.496;2023-02-28T09:47:31;101533.94;;;4.18;42.82
50702;BME280;36670;50.094;8.496;2023-02-28T09:50:06;101531.44;;;4.08;42.85
50702;BME280;36670;50.094;8.496;2023-02-28T09:52:37;101521.41;;;4.00;42.57
50702;BME280;36670;50.094;8.496;2023-02-28T09:57:46;101525.44;;;4.59;41.67
50702;BME280;36670;50.094;8.496;2023-02-28T10:00:18;101522.94;;;4.95;42.26
50702;BME280;36670;50.094;8.496;2023-02-28T10:05:16;101524.34;;;5.06;41.23
50702;BME280;36670;50.094;8.496;2023-02-28T10:07:48;101526.63;;;5.03;40.58
50702;BME280;36670;50.094;8.496;2023-02-28T10:10:40;101530.47;;;4.93;40.72
50702;BME280;36670;50.094;8.496;2023-02-28T10:13:57;101527.22;;;4.90;40.33
50702;BME280;36670;50.094;8.496;2023-02-28T10:16:08;101527.97;;;4.84;40.30
50702;BME280;36670;50.094;8.496;2023-02-28T10:18:52;101531.78;;;4.98;40.46
50702;BME280;36670;50.094;8.496;2023-02-28T10:21:23;101524.06;;;5.01;40.60
50702;BME280;36670;50.094;8.496;2023-02-28T10:23:53;101537.69;;;5.09;40.29
50702;BME280;36670;50.094;8.496;2023-02-28T10:26:21;101520.00;;;5.12;39.37
50702;BME280;36670;50.094;8.496;2023-02-28T10:28:46;101536.88;;;4.63;40.24
50702;BME280;36670;50.094;8.496;2023-02-28T10:31:17;101529.00;;;4.68;40.29
50702;BME280;36670;50.094;8.496;2023-02-28T10:33:44;101525.97;;;5.16;40.95
50702;BME280;36670;50.094;8.496;2023-02-28T10:36:14;101519.19;;;5.56;39.97
50702;BME280;36670;50.094;8.496;2023-02-28T10:38:39;101529.88;;;5.51;38.85
50702;BME280;36670;50.094;8.496;2023-02-28T10:41:28;101514.94;;;5.54;39.92
50702;BME280;36670;50.094;8.496;2023-02-28T10:44:16;101519.53;;;5.83;39.59
50702;BME280;36670;50.094;8.496;2023-02-28T10:46:42;101520.09;;;5.93;38.72
50702;BME280;36670;50.094;8.496;2023-02-28T10:49:22;101513.50;;;5.88;38.48
50702;BME280;36670;50.094;8.496;2023-02-28T10:51:52;101519.38;;;5.85;37.52
50702;BME280;36670;50.094;8.496;2023-02-28T10:54:24;101506.22;;;6.10;38.38
50702;BME280;36670;50.094;8.496;2023-02-28T10:59:35;101510.59;;;6.26;38.28
50702;BME280;36670;50.094;8.496;2023-02-28T11:02:00;101510.78;;;6.24;38.68
50702;BME280;36670;50.094;8.496;2023-02-28T11:07:09;101503.03;;;6.28;36.81
50702;BME280;36670;50.094;8.496;2023-02-28T11:09:45;101505.91;;;6.20;36.41
50702;BME280;36670;50.094;8.496;2023-02-28T11:12:39;101500.28;;;6.28;37.36
50702;BME280;36670;50.094;8.496;2023-02-28T11:17:57;101499.28;;;6.36;37.51
50702;BME280;36670;50.094;8.496;2023-02-28T11:20:25;101497.47;;;6.43;37.04
50702;BME280;36670;50.094;8.496;2023-02-28T11:22:52;101485.63;;;6.86;36.47
50702;BME280;36670;50.094;8.496;2023-02-28T11:25:23;101490.13;;;6.93;35.75
50702;BME280;36670;50.094;8.496;2023-02-28T11:27:56;101489.41;;;7.13;36.03
50702;BME280;36670;50.094;8.496;2023-02-28T11:30:34;101468.63;;;7.04;36.35
50702;BME280;36670;50.094;8.496;2023-02-28T11:33:01;101478.78;;;7.03;35.93
50702;BME280;36670;50.094;8.496;2023-02-28T11:35:34;101467.75;;;6.96;35.93
50702;BME280;36670;50.094;8.496;2023-02-28T11:38:02;101482.78;;;7.00;34.74
50702;BME280;36670;50.094;8.496;2023-02-28T11:40:48;101476.75;;;6.83;35.42
50702;BME280;36670;50.094;8.496;2023-02-28T11:46:31;101486.31;;;6.94;36.02
50702;BME280;36670;50.094;8.496;2023-02-28T11:52:02;101474.94;;;6.97;36.65
50702;BME280;36670;50.094;8.496;2023-02-28T11:57:48;101479.56;;;6.47;36.39
50702;BME280;36670;50.094;8.496;2023-02-28T12:03:26;101472.63;;;7.01;36.48
50702;BME280;36670;50.094;8.496;2023-02-28T12:08:43;101466.59;;;7.12;35.85
50702;BME280;36670;50.094;8.496;2023-02-28T12:11:16;101470.97;;;7.07;36.22
50702;BME280;36670;50.094;8.496;2023-02-28T12:16:41;101457.41;;;7.27;36.42
50702;BME280;36670;50.094;8.496;2023-02-28T12:21:50;101470.63;;;7.16;35.70
50702;BME280;36670;50.094;8.496;2023-02-28T12:24:47;101477.56;;;7.12;35.05
50702;BME280;36670;50.094;8.496;2023-02-28T12:27:18;101471.00;;;6.78;35.86
50702;BME280;36670;50.094;8.496;2023-02-28T12:29:50;101472.56;;;6.88;36.04
50702;BME280;36670;50.094;8.496;2023-02-28T12:34:52;101462.16;;;6.83;35.50
50702;BME280;36670;50.094;8.496;2023-02-28T12:37:24;101466.25;;;6.65;35.89
50702;BME280;36670;50.094;8.496;2023-02-28T12:39:55;101463.50;;;6.65;36.39
50702;BME280;36670;50.094;8.496;2023-02-28T12:42:36;101462.09;;;6.76;36.17
50702;BME280;36670;50.094;8.496;2023-02-28T12:45:10;101464.81;;;6.48;36.64
50702;BME280;36670;50.094;8.496;2023-02-28T12:47:38;101462.66;;;6.43;36.58
50702;BME280;36670;50.094;8.496;2023-02-28T12:50:08;101456.94;;;6.66;37.11
50702;BME280;36670;50.094;8.496;2023-02-28T12:58:05;101453.59;;;6.21;36.45
50702;BME280;36670;50.094;8.496;2023-02-28T13:00:35;101446.72;;;6.10;37.58
50702;BME280;36670;50.094;8.496;2023-02-28T13:03:33;101445.63;;;6.26;37.76
50702;BME280;36670;50.094;8.496;2023-02-28T13:06:17;101449.09;;;6.35;37.13
50702;BME280;36670;50.094;8.496;2023-02-28T13:08:53;101440.53;;;6.45;37.70
50702;BME280;36670;50.094;8.496;2023-02-28T13:11:28;101450.63;;;6.66;37.89
50702;BME280;36670;50.094;8.496;2023-02-28T13:14:03;101439.16;;;6.56;36.86
50702;BME280;36670;50.094;8.496;2023-02-28T13:16:54;101449.34;;;6.19;36.84
50702;BME280;36670;50.094;8.496;2023-02-28T13:19:22;101448.50;;;6.18;37.79
50702;BME280;36670;50.094;8.496;2023-02-28T13:21:50;101448.88;;;6.15;37.26
50702;BME280;36670;50.094;8.496;2023-02-28T13:24:45;101443.22;;;6.17;37.50
50702;BME280;36670;50.094;8.496;2023-02-28T13:27:22;101437.03;;;6.58;37.26
50702;BME280;36670;50.094;8.496;2023-02-28T13:29:53;101437.66;;;6.81;37.27
50702;BME280;36670;50.094;8.496;2023-02-28T13:39:58;101439.09;;;6.77;36.48
50702;BME280;36670;50.094;8.496;2023-02-28T13:42:34;101437.31;;;6.63;36.84
50702;BME280;36670;50.094;8.496;2023-02-28T13:47:51;101441.59;;;6.72;36.55
50702;BME280;36670;50.094;8.496;2023-02-28T13:55:41;101438.66;;;7.02;36.48
50702;BME280;36670;50.094;8.496;2023-02-28T14:01:22;101435.63;;;6.40;37.77
50702;BME280;36670;50.094;8.496;2023-02-28T14:04:39;101438.53;;;6.89;37.52
50702;BME280;36670;50.094;8.496;2023-02-28T14:06:52;101428.28;;;6.97;36.70
50702;BME280;36670;50.094;8.496;2023-02-28T14:11:48;101436.44;;;6.62;37.24
50702;BME280;36670;50.094;8.496;2023-02-28T14:17:05;101432.38;;;6.30;37.56
50702;BME280;36670;50.094;8.496;2023-02-28T14:19:34;101428.31;;;6.47;37.44
50702;BME280;36670;50.094;8.496;2023-02-28T14:27:52;101426.09;;;6.14;38.73
50702;BME280;36670;50.094;8.496;2023-02-28T14:33:34;101424.22;;;6.65;37.86
50702;BME280;36670;50.094;8.496;2023-02-28T14:36:11;101412.59;;;6.63;37.44
50702;BME280;36670;50.094;8.496;2023-02-28T14:39:11;101419.59;;;6.65;37.52
50702;BME280;36670;50.094;8.496;2023-02-28T14:41:40;101407.81;;;6.43;38.07
50702;BME280;36670;50.094;8.496;2023-02-28T14:46:42;101412.59;;;6.63;37.99
50702;BME280;36670;50.094;8.496;2023-02-28T14:49:17;101398.94;;;6.70;37.18
50702;BME280;36670;50.094;8.496;2023-02-28T14:51:43;101410.50;;;6.65;37.93